sensor_id;sensor_type;location;lat;lon;timestamp;P1;durP1;ratioP1;P2;durP2;ratioP2
19754;SDS011;10036;47.812;9.274;2024-02-21T00:01:24;11.27;;;4.53;;
19754;SDS011;10036;47.812;9.274;2024-02-21T00:03:51;10.23;;;4.07;;
19754;SDS011;10036;47.812;9.274;2024-02-21T00:06:19;9.25;;;4.85;;
19754;SDS011;10036;47.812;9.274;2024-02-21T00:08:46;9.40;;;4.53;;
19754;SDS011;10036;47.812;9.274;2024-02-21T00:11:13;9.35;;;4.45;;
19754;SDS011;10036;47.812;9.274;2024-02-21T00:13:39;14.15;;;5.10;;
19754;SDS011;10036;47.812;9.274;2024-02-21T00:16:06;10.43;;;4.72;;
19754;SDS011;10036;47.812;9.274;2024-02-21T00:18:33;10.52;;;5.00;;
19754;SDS011;10036;47.812;9.274;2024-02-21T00:21:00;8.98;;;3.95;;
19754;SDS011;10036;47.812;9.274;2024-02-21T00:23:29;12.40;;;4.30;;
19754;SDS011;10036;47.812;9.274;2024-02-21T00:25:56;11.30;;;4.10;;
19754;SDS011;10036;47.812;9.274;2024-02-21T00:28:23;12.32;;;4.20;;
19754;SDS011;10036;47.812;9.274;2024-02-21T00:30:50;8.05;;;4.28;;
19754;SDS011;10036;47.812;9.274;2024-02-21T00:33:18;10.77;;;5.22;;
19754;SDS011;10036;47.812;9.274;2024-02-21T00:35:45;12.50;;;5.30;;
19754;SDS011;10036;47.812;9.274;2024-02-21T00:38:12;14.15;;;6.72;;
19754;SDS011;10036;47.812;9.274;2024-02-21T00:40:40;14.00;;;6.80;;
19754;SDS011;10036;47.812;9.274;2024-02-21T00:43:07;14.68;;;7.32;;
19754;SDS011;10036;47.812;9.274;2024-02-21T00:45:34;14.43;;;7.10;;
19754;SDS011;10036;47.812;9.274;2024-02-21T00:48:01;15.35;;;5.85;;
19754;SDS011;10036;47.812;9.274;2024-02-21T00:50:28;12.30;;;5.57;;
19754;SDS011;10036;47.812;9.274;2024-02-21T00:52:55;13.82;;;5.53;;
19754;SDS011;10036;47.812;9.274;2024-02-21T00:55:22;14.98;;;5.85;;
19754;SDS011;10036;47.812;9.274;2024-02-21T00:57:50;12.82;;;5.05;;
19754;SDS011;10036;47.812;9.274;2024-02-21T01:00:18;14.77;;;5.38;;
19754;SDS011;10036;47.812;9.274;2024-02-21T01:02:45;12.45;;;5.05;;
19754;SDS011;10036;47.812;9.274;2024-02-21T01:05:12;13.48;;;5.63;;
19754;SDS011;10036;47.812;9.274;2024-02-21T01:07:39;9.05;;;4.90;;
19754;SDS011;10036;47.812;9.274;2024-02-21T01:10:06;11.57;;;5.60;;
19754;SDS011;10036;47.812;9.274;2024-02-21T01:12:34;12.63;;;5.35;;
19754;SDS011;10036;47.812;9.274;2024-02-21T01:15:02;9.48;;;4.93;;
19754;SDS011;10036;47.812;9.274;2024-02-21T01:17:30;7.68;;;4.35;;
19754;SDS011;10036;47.812;9.274;2024-02-21T01:19:56;7.68;;;4.78;;
19754;SDS011;10036;47.812;9.274;2024-02-21T01:22:23;10.10;;;4.28;;
19754;SDS011;10036;47.812;9.274;2024-02-21T01:24:50;7.63;;;5.05;;
19754;SDS011;10036;47.812;9.274;2024-02-21T01:27:17;10.43;;;4.63;;
19754;SDS011;10036;47.812;9.274;2024-02-21T01:29:45;8.68;;;4.80;;
19754;SDS011;10036;47.812;9.274;2024-02-21T01:32:16;11.68;;;5.63;;
19754;SDS011;10036;47.812;9.274;2024-02-21T01:34:42;15.98;;;6.15;;
19754;SDS011;10036;47.812;9.274;2024-02-21T01:37:09;11.88;;;5.50;;
19754;SDS011;10036;47.812;9.274;2024-02-21T01:39:36;12.10;;;4.85;;
19754;SDS011;10036;47.812;9.274;2024-02-21T01:42:06;10.13;;;4.03;;
19754;SDS011;10036;47.812;9.274;2024-02-21T01:44:34;9.35;;;4.28;;
19754;SDS011;10036;47.812;9.274;2024-02-21T01:47:01;10.93;;;4.18;;
19754;SDS011;10036;47.812;9.274;2024-02-21T01:49:30;8.57;;;4.05;;
19754;SDS011;10036;47.812;9.274;2024-02-21T01:51:57;6.22;;;3.88;;
19754;SDS011;10036;47.812;9.274;2024-02-21T01:54:24;9.23;;;3.85;;
19754;SDS011;10036;47.812;9.274;2024-02-21T01:56:53;7.63;;;3.97;;
19754;SDS011;10036;47.812;9.274;2024-02-21T01:59:20;8.18;;;4.00;;
19754;SDS011;10036;47.812;9.274;2024-02-21T02:01:48;10.68;;;4.80;;
19754;SDS011;10036;47.812;9.274;2024-02-21T02:04:16;6.35;;;4.07;;
19754;SDS011;10036;47.812;9.274;2024-02-21T02:06:45;6.43;;;4.32;;
19754;SDS011;10036;47.812;9.274;2024-02-21T02:09:12;9.05;;;4.35;;
19754;SDS011;10036;47.812;9.274;2024-02-21T02:11:39;7.97;;;4.70;;
19754;SDS011;10036;47.812;9.274;2024-02-21T02:14:06;8.60;;;4.68;;
19754;SDS011;10036;47.812;9.274;2024-02-21T02:16:33;7.63;;;4.60;;
19754;SDS011;10036;47.812;9.274;2024-02-21T02:19:00;7.10;;;4.53;;
19754;SDS011;10036;47.812;9.274;2024-02-21T02:21:29;6.00;;;4.03;;
19754;SDS011;10036;47.812;9.274;2024-02-21T02:23:57;8.57;;;4.03;;
19754;SDS011;10036;47.812;9.274;2024-02-21T02:26:25;11.30;;;4.05;;
19754;SDS011;10036;47.812;9.274;2024-02-21T02:28:52;8.05;;;4.60;;
19754;SDS011;10036;47.812;9.274;2024-02-21T02:31:19;8.07;;;4.63;;
19754;SDS011;10036;47.812;9.274;2024-02-21T02:33:46;6.10;;;4.03;;
19754;SDS011;10036;47.812;9.274;2024-02-21T02:36:14;9.18;;;4.28;;
19754;SDS011;10036;47.812;9.274;2024-02-21T02:38:41;8.07;;;5.03;;
19754;SDS011;10036;47.812;9.274;2024-02-21T02:41:09;10.65;;;4.93;;
19754;SDS011;10036;47.812;9.274;2024-02-21T02:43:36;14.82;;;5.50;;
19754;SDS011;10036;47.812;9.274;2024-02-21T02:46:03;13.13;;;5.03;;
19754;SDS011;10036;47.812;9.274;2024-02-21T02:48:29;8.07;;;4.43;;
19754;SDS011;10036;47.812;9.274;2024-02-21T02:50:56;6.28;;;3.97;;
19754;SDS011;10036;47.812;9.274;2024-02-21T02:53:23;7.93;;;3.47;;
19754;SDS011;10036;47.812;9.274;2024-02-21T02:55:50;8.20;;;3.97;;
19754;SDS011;10036;47.812;9.274;2024-02-21T02:58:18;11.23;;;3.95;;
19754;SDS011;10036;47.812;9.274;2024-02-21T03:00:45;9.13;;;4.18;;
19754;SDS011;10036;47.812;9.274;2024-02-21T03:03:12;8.77;;;5.00;;
19754;SDS011;10036;47.812;9.274;2024-02-21T03:05:39;6.85;;;4.93;;
19754;SDS011;10036;47.812;9.274;2024-02-21T03:08:06;9.95;;;4.57;;
19754;SDS011;10036;47.812;9.274;2024-02-21T03:10:33;6.32;;;4.80;;
19754;SDS011;10036;47.812;9.274;2024-02-21T03:13:00;7.40;;;3.88;;
19754;SDS011;10036;47.812;9.274;2024-02-21T03:15:28;6.68;;;4.25;;
19754;SDS011;10036;47.812;9.274;2024-02-21T03:17:55;11.23;;;4.13;;
19754;SDS011;10036;47.812;9.274;2024-02-21T03:20:22;5.70;;;3.92;;
19754;SDS011;10036;47.812;9.274;2024-02-21T03:22:49;6.95;;;4.05;;
19754;SDS011;10036;47.812;9.274;2024-02-21T03:25:16;4.75;;;3.50;;
19754;SDS011;10036;47.812;9.274;2024-02-21T03:27:44;12.05;;;5.43;;
19754;SDS011;10036;47.812;9.274;2024-02-21T03:30:12;12.60;;;6.25;;
19754;SDS011;10036;47.812;9.274;2024-02-21T03:32:40;13.32;;;6.90;;
19754;SDS011;10036;47.812;9.274;2024-02-21T03:35:07;13.30;;;5.97;;
19754;SDS011;10036;47.812;9.274;2024-02-21T03:37:35;15.80;;;6.97;;
19754;SDS011;10036;47.812;9.274;2024-02-21T03:40:02;12.02;;;5.70;;
19754;SDS011;10036;47.812;9.274;2024-02-21T03:42:33;12.35;;;6.20;;
19754;SDS011;10036;47.812;9.274;2024-02-21T03:45:00;11.32;;;5.70;;
19754;SDS011;10036;47.812;9.274;2024-02-21T03:47:28;10.73;;;5.60;;
19754;SDS011;10036;47.812;9.274;2024-02-21T03:49:57;13.40;;;6.35;;
19754;SDS011;10036;47.812;9.274;2024-02-21T03:52:24;9.55;;;5.60;;
19754;SDS011;10036;47.812;9.274;2024-02-21T03:54:51;7.93;;;5.07;;
19754;SDS011;10036;47.812;9.274;2024-02-21T03:57:20;10.57;;;5.53;;
19754;SDS011;10036;47.812;9.274;2024-02-21T03:59:46;11.88;;;5.35;;
19754;SDS011;10036;47.812;9.274;2024-02-21T04:02:16;12.93;;;6.18;;
19754;SDS011;10036;47.812;9.274;2024-02-21T04:04:43;10.85;;;5.30;;
19754;SDS011;10036;47.812;9.274;2024-02-21T04:07:12;8.43;;;4.78;;
19754;SDS011;10036;47.812;9.274;2024-02-21T04:09:39;10.10;;;5.20;;
19754;SDS011;10036;47.812;9.274;2024-02-21T04:12:07;8.40;;;5.00;;
19754;SDS011;10036;47.812;9.274;2024-02-21T04:14:34;7.35;;;4.43;;
19754;SDS011;10036;47.812;9.274;2024-02-21T04:17:01;9.07;;;4.45;;
19754;SDS011;10036;47.812;9.274;2024-02-21T04:19:30;10.45;;;4.28;;
19754;SDS011;10036;47.812;9.274;2024-02-21T04:21:57;7.95;;;4.05;;
19754;SDS011;10036;47.812;9.274;2024-02-21T04:24:26;6.75;;;3.72;;
19754;SDS011;10036;47.812;9.274;2024-02-21T04:26:52;6.38;;;4.30;;
19754;SDS011;10036;47.812;9.274;2024-02-21T04:29:19;5.78;;;4.00;;
19754;SDS011;10036;47.812;9.274;2024-02-21T04:31:46;8.35;;;3.85;;
19754;SDS011;10036;47.812;9.274;2024-02-21T04:34:13;4.30;;;3.90;;
19754;SDS011;10036;47.812;9.274;2024-02-21T04:36:40;7.95;;;3.90;;
19754;SDS011;10036;47.812;9.274;2024-02-21T04:39:08;8.82;;;4.50;;
19754;SDS011;10036;47.812;9.274;2024-02-21T04:41:37;9.85;;;4.40;;
19754;SDS011;10036;47.812;9.274;2024-02-21T04:44:04;12.85;;;5.72;;
19754;SDS011;10036;47.812;9.274;2024-02-21T04:46:31;15.85;;;6.72;;
19754;SDS011;10036;47.812;9.274;2024-02-21T04:48:58;13.63;;;6.97;;
19754;SDS011;10036;47.812;9.274;2024-02-21T04:51:25;16.00;;;7.63;;
19754;SDS011;10036;47.812;9.274;2024-02-21T04:53:52;16.48;;;7.15;;
19754;SDS011;10036;47.812;9.274;2024-02-21T04:56:19;16.50;;;6.72;;
19754;SDS011;10036;47.812;9.274;2024-02-21T04:58:47;13.50;;;5.72;;
19754;SDS011;10036;47.812;9.274;2024-02-21T05:01:14;11.20;;;5.13;;
19754;SDS011;10036;47.812;9.274;2024-02-21T05:03:41;11.43;;;5.90;;
19754;SDS011;10036;47.812;9.274;2024-02-21T05:06:08;10.07;;;5.32;;
19754;SDS011;10036;47.812;9.274;2024-02-21T05:08:34;15.32;;;6.15;;
19754;SDS011;10036;47.812;9.274;2024-02-21T05:11:01;13.55;;;5.55;;
19754;SDS011;10036;47.812;9.274;2024-02-21T05:13:28;9.15;;;5.35;;
19754;SDS011;10036;47.812;9.274;2024-02-21T05:15:56;12.45;;;6.10;;
19754;SDS011;10036;47.812;9.274;2024-02-21T05:18:26;12.32;;;6.25;;
19754;SDS011;10036;47.812;9.274;2024-02-21T05:20:53;12.43;;;6.30;;
19754;SDS011;10036;47.812;9.274;2024-02-21T05:23:20;12.88;;;6.20;;
19754;SDS011;10036;47.812;9.274;2024-02-21T05:25:47;10.30;;;5.78;;
19754;SDS011;10036;47.812;9.274;2024-02-21T05:28:14;9.82;;;6.03;;
19754;SDS011;10036;47.812;9.274;2024-02-21T05:30:41;8.95;;;5.57;;
19754;SDS011;10036;47.812;9.274;2024-02-21T05:33:09;7.50;;;5.10;;
19754;SDS011;10036;47.812;9.274;2024-02-21T05:35:37;11.20;;;5.72;;
19754;SDS011;10036;47.812;9.274;2024-02-21T05:38:04;9.43;;;6.07;;
19754;SDS011;10036;47.812;9.274;2024-02-21T05:40:36;10.35;;;6.20;;
19754;SDS011;10036;47.812;9.274;2024-02-21T05:43:03;15.43;;;7.07;;
19754;SDS011;10036;47.812;9.274;2024-02-21T05:45:30;18.10;;;8.38;;
19754;SDS011;10036;47.812;9.274;2024-02-21T05:47:57;18.40;;;8.57;;
19754;SDS011;10036;47.812;9.274;2024-02-21T05:50:26;19.23;;;8.05;;
19754;SDS011;10036;47.812;9.274;2024-02-21T05:52:54;12.63;;;6.82;;
19754;SDS011;10036;47.812;9.274;2024-02-21T05:55:21;11.40;;;6.80;;
19754;SDS011;10036;47.812;9.274;2024-02-21T05:57:48;10.23;;;6.18;;
19754;SDS011;10036;47.812;9.274;2024-02-21T06:00:15;11.07;;;6.82;;
19754;SDS011;10036;47.812;9.274;2024-02-21T06:02:42;9.98;;;5.80;;
19754;SDS011;10036;47.812;9.274;2024-02-21T06:05:09;15.20;;;6.63;;
19754;SDS011;10036;47.812;9.274;2024-02-21T06:07:38;16.83;;;7.68;;
19754;SDS011;10036;47.812;9.274;2024-02-21T06:10:06;12.05;;;7.10;;
19754;SDS011;10036;47.812;9.274;2024-02-21T06:12:33;8.85;;;6.13;;
19754;SDS011;10036;47.812;9.274;2024-02-21T06:15:00;7.95;;;5.30;;
19754;SDS011;10036;47.812;9.274;2024-02-21T06:17:27;10.52;;;5.38;;
19754;SDS011;10036;47.812;9.274;2024-02-21T06:19:54;8.20;;;5.22;;
19754;SDS011;10036;47.812;9.274;2024-02-21T06:22:21;15.50;;;6.00;;
19754;SDS011;10036;47.812;9.274;2024-02-21T06:24:49;10.50;;;6.22;;
19754;SDS011;10036;47.812;9.274;2024-02-21T06:27:16;8.48;;;5.43;;
19754;SDS011;10036;47.812;9.274;2024-02-21T06:29:43;15.85;;;6.20;;
19754;SDS011;10036;47.812;9.274;2024-02-21T06:32:10;8.38;;;5.93;;
19754;SDS011;10036;47.812;9.274;2024-02-21T06:34:37;6.82;;;5.35;;
19754;SDS011;10036;47.812;9.274;2024-02-21T06:37:04;10.10;;;5.60;;
19754;SDS011;10036;47.812;9.274;2024-02-21T06:39:31;10.18;;;4.93;;
19754;SDS011;10036;47.812;9.274;2024-02-21T06:41:59;8.02;;;5.57;;
19754;SDS011;10036;47.812;9.274;2024-02-21T06:44:27;12.85;;;5.78;;
19754;SDS011;10036;47.812;9.274;2024-02-21T06:46:54;16.63;;;7.03;;
19754;SDS011;10036;47.812;9.274;2024-02-21T06:49:21;12.40;;;6.65;;
19754;SDS011;10036;47.812;9.274;2024-02-21T06:51:48;15.43;;;7.20;;
19754;SDS011;10036;47.812;9.274;2024-02-21T06:54:15;16.88;;;6.95;;
19754;SDS011;10036;47.812;9.274;2024-02-21T06:56:42;11.52;;;6.72;;
19754;SDS011;10036;47.812;9.274;2024-02-21T06:59:10;9.93;;;6.20;;
19754;SDS011;10036;47.812;9.274;2024-02-21T07:01:44;12.13;;;6.75;;
19754;SDS011;10036;47.812;9.274;2024-02-21T07:04:11;10.77;;;6.50;;
19754;SDS011;10036;47.812;9.274;2024-02-21T07:06:38;12.10;;;6.05;;
19754;SDS011;10036;47.812;9.274;2024-02-21T07:09:05;10.60;;;6.03;;
19754;SDS011;10036;47.812;9.274;2024-02-21T07:11:32;9.82;;;6.00;;
19754;SDS011;10036;47.812;9.274;2024-02-21T07:13:59;8.55;;;5.85;;
19754;SDS011;10036;47.812;9.274;2024-02-21T07:16:27;10.75;;;6.13;;
19754;SDS011;10036;47.812;9.274;2024-02-21T07:18:54;13.48;;;8.48;;
19754;SDS011;10036;47.812;9.274;2024-02-21T07:21:21;15.25;;;9.32;;
19754;SDS011;10036;47.812;9.274;2024-02-21T07:23:48;16.65;;;9.63;;
19754;SDS011;10036;47.812;9.274;2024-02-21T07:26:16;14.18;;;7.90;;
19754;SDS011;10036;47.812;9.274;2024-02-21T07:28:42;15.52;;;7.30;;
19754;SDS011;10036;47.812;9.274;2024-02-21T07:31:09;11.93;;;6.55;;
19754;SDS011;10036;47.812;9.274;2024-02-21T07:33:38;18.80;;;8.18;;
19754;SDS011;10036;47.812;9.274;2024-02-21T07:36:05;16.13;;;6.47;;
19754;SDS011;10036;47.812;9.274;2024-02-21T07:38:33;10.50;;;5.60;;
19754;SDS011;10036;47.812;9.274;2024-02-21T07:41:00;9.18;;;5.55;;
19754;SDS011;10036;47.812;9.274;2024-02-21T07:43:27;9.82;;;5.80;;
19754;SDS011;10036;47.812;9.274;2024-02-21T07:45:54;9.70;;;5.68;;
19754;SDS011;10036;47.812;9.274;2024-02-21T07:48:21;11.30;;;5.28;;
19754;SDS011;10036;47.812;9.274;2024-02-21T07:50:51;7.80;;;5.75;;
19754;SDS011;10036;47.812;9.274;2024-02-21T07:53:18;9.60;;;6.18;;
19754;SDS011;10036;47.812;9.274;2024-02-21T07:55:46;14.60;;;6.55;;
19754;SDS011;10036;47.812;9.274;2024-02-21T07:58:12;11.27;;;7.40;;
19754;SDS011;10036;47.812;9.274;2024-02-21T08:00:39;28.60;;;9.98;;
19754;SDS011;10036;47.812;9.274;2024-02-21T08:03:06;18.77;;;8.80;;
19754;SDS011;10036;47.812;9.274;2024-02-21T08:05:34;13.43;;;6.88;;
19754;SDS011;10036;47.812;9.274;2024-02-21T08:08:02;13.35;;;5.55;;
19754;SDS011;10036;47.812;9.274;2024-02-21T08:10:29;7.47;;;4.50;;
19754;SDS011;10036;47.812;9.274;2024-02-21T08:12:56;10.05;;;4.90;;
19754;SDS011;10036;47.812;9.274;2024-02-21T08:15:23;6.60;;;4.60;;
19754;SDS011;10036;47.812;9.274;2024-02-21T08:17:53;7.28;;;4.90;;
19754;SDS011;10036;47.812;9.274;2024-02-21T08:20:23;7.10;;;4.53;;
19754;SDS011;10036;47.812;9.274;2024-02-21T08:22:50;7.78;;;4.07;;
19754;SDS011;10036;47.812;9.274;2024-02-21T08:25:19;4.13;;;3.40;;
19754;SDS011;10036;47.812;9.274;2024-02-21T08:27:45;7.13;;;3.70;;
19754;SDS011;10036;47.812;9.274;2024-02-21T08:30:12;5.32;;;3.65;;
19754;SDS011;10036;47.812;9.274;2024-02-21T08:32:40;4.32;;;3.50;;
19754;SDS011;10036;47.812;9.274;2024-02-21T08:35:07;5.65;;;3.53;;
19754;SDS011;10036;47.812;9.274;2024-02-21T08:37:34;5.43;;;3.15;;
19754;SDS011;10036;47.812;9.274;2024-02-21T08:40:01;4.88;;;2.75;;
19754;SDS011;10036;47.812;9.274;2024-02-21T08:42:35;7.13;;;3.10;;
19754;SDS011;10036;47.812;9.274;2024-02-21T08:45:02;5.80;;;3.00;;
19754;SDS011;10036;47.812;9.274;2024-02-21T08:47:30;5.15;;;2.80;;
19754;SDS011;10036;47.812;9.274;2024-02-21T08:49:56;5.15;;;2.90;;
19754;SDS011;10036;47.812;9.274;2024-02-21T08:52:23;4.22;;;2.80;;
19754;SDS011;10036;47.812;9.274;2024-02-21T08:54:50;5.72;;;3.03;;
19754;SDS011;10036;47.812;9.274;2024-02-21T08:57:18;6.85;;;3.03;;
19754;SDS011;10036;47.812;9.274;2024-02-21T08:59:47;4.00;;;3.28;;
19754;SDS011;10036;47.812;9.274;2024-02-21T09:02:13;6.97;;;3.10;;
19754;SDS011;10036;47.812;9.274;2024-02-21T09:04:41;5.15;;;2.97;;
19754;SDS011;10036;47.812;9.274;2024-02-21T09:07:09;8.45;;;2.90;;
19754;SDS011;10036;47.812;9.274;2024-02-21T09:09:35;3.70;;;2.78;;
19754;SDS011;10036;47.812;9.274;2024-02-21T09:12:03;2.80;;;2.60;;
19754;SDS011;10036;47.812;9.274;2024-02-21T09:14:31;4.63;;;2.85;;
19754;SDS011;10036;47.812;9.274;2024-02-21T09:17:00;4.55;;;3.30;;
19754;SDS011;10036;47.812;9.274;2024-02-21T09:19:27;4.50;;;2.90;;
19754;SDS011;10036;47.812;9.274;2024-02-21T09:21:54;3.95;;;2.75;;
19754;SDS011;10036;47.812;9.274;2024-02-21T09:24:21;6.75;;;2.78;;
19754;SDS011;10036;47.812;9.274;2024-02-21T09:26:48;6.85;;;3.20;;
19754;SDS011;10036;47.812;9.274;2024-02-21T09:29:15;4.60;;;3.25;;
19754;SDS011;10036;47.812;9.274;2024-02-21T09:31:42;5.80;;;3.22;;
19754;SDS011;10036;47.812;9.274;2024-02-21T09:34:10;3.17;;;2.80;;
19754;SDS011;10036;47.812;9.274;2024-02-21T09:36:37;4.75;;;3.10;;
19754;SDS011;10036;47.812;9.274;2024-02-21T09:39:05;5.80;;;3.40;;
19754;SDS011;10036;47.812;9.274;2024-02-21T09:41:32;4.57;;;2.92;;
19754;SDS011;10036;47.812;9.274;2024-02-21T09:44:06;4.13;;;2.92;;
19754;SDS011;10036;47.812;9.274;2024-02-21T09:46:38;5.57;;;3.17;;
19754;SDS011;10036;47.812;9.274;2024-02-21T09:49:15;4.90;;;3.42;;
19754;SDS011;10036;47.812;9.274;2024-02-21T09:51:53;3.63;;;3.00;;
19754;SDS011;10036;47.812;9.274;2024-02-21T09:54:21;4.88;;;3.25;;
19754;SDS011;10036;47.812;9.274;2024-02-21T09:56:48;5.28;;;3.10;;
19754;SDS011;10036;47.812;9.274;2024-02-21T09:59:15;5.20;;;3.22;;
19754;SDS011;10036;47.812;9.274;2024-02-21T10:01:43;4.97;;;3.20;;
19754;SDS011;10036;47.812;9.274;2024-02-21T10:04:12;5.55;;;3.33;;
19754;SDS011;10036;47.812;9.274;2024-02-21T10:06:40;7.45;;;3.33;;
19754;SDS011;10036;47.812;9.274;2024-02-21T10:09:07;3.70;;;3.22;;
19754;SDS011;10036;47.812;9.274;2024-02-21T10:11:34;6.43;;;3.33;;
19754;SDS011;10036;47.812;9.274;2024-02-21T10:14:04;6.07;;;3.08;;
19754;SDS011;10036;47.812;9.274;2024-02-21T10:16:31;5.25;;;3.47;;
19754;SDS011;10036;47.812;9.274;2024-02-21T10:18:58;4.25;;;3.08;;
19754;SDS011;10036;47.812;9.274;2024-02-21T10:21:27;8.68;;;3.65;;
19754;SDS011;10036;47.812;9.274;2024-02-21T10:23:54;3.88;;;3.40;;
19754;SDS011;10036;47.812;9.274;2024-02-21T10:26:21;4.40;;;3.08;;
19754;SDS011;10036;47.812;9.274;2024-02-21T10:28:48;4.38;;;3.55;;
19754;SDS011;10036;47.812;9.274;2024-02-21T10:31:23;4.80;;;3.17;;
19754;SDS011;10036;47.812;9.274;2024-02-21T10:33:54;5.07;;;3.00;;
19754;SDS011;10036;47.812;9.274;2024-02-21T10:36:22;3.88;;;3.33;;
19754;SDS011;10036;47.812;9.274;2024-02-21T10:38:51;5.50;;;3.17;;
19754;SDS011;10036;47.812;9.274;2024-02-21T10:41:19;6.45;;;3.20;;
19754;SDS011;10036;47.812;9.274;2024-02-21T10:43:50;4.57;;;2.90;;
19754;SDS011;10036;47.812;9.274;2024-02-21T10:46:19;4.25;;;3.22;;
19754;SDS011;10036;47.812;9.274;2024-02-21T10:48:47;4.20;;;2.90;;
19754;SDS011;10036;47.812;9.274;2024-02-21T10:51:17;6.07;;;2.97;;
19754;SDS011;10036;47.812;9.274;2024-02-21T10:53:46;3.15;;;2.85;;
19754;SDS011;10036;47.812;9.274;2024-02-21T10:56:26;5.72;;;3.50;;
19754;SDS011;10036;47.812;9.274;2024-02-21T10:58:54;4.20;;;3.13;;
19754;SDS011;10036;47.812;9.274;2024-02-21T11:01:24;3.50;;;3.00;;
19754;SDS011;10036;47.812;9.274;2024-02-21T11:03:55;4.50;;;3.00;;
19754;SDS011;10036;47.812;9.274;2024-02-21T11:06:23;3.15;;;2.80;;
19754;SDS011;10036;47.812;9.274;2024-02-21T11:09:01;3.83;;;3.00;;
19754;SDS011;10036;47.812;9.274;2024-02-21T11:11:29;4.00;;;2.97;;
19754;SDS011;10036;47.812;9.274;2024-02-21T11:14:03;6.22;;;2.95;;
19754;SDS011;10036;47.812;9.274;2024-02-21T11:16:34;3.55;;;2.80;;
19754;SDS011;10036;47.812;9.274;2024-02-21T11:19:04;5.60;;;3.75;;
19754;SDS011;10036;47.812;9.274;2024-02-21T11:21:34;4.57;;;2.70;;
19754;SDS011;10036;47.812;9.274;2024-02-21T11:24:03;6.13;;;3.03;;
19754;SDS011;10036;47.812;9.274;2024-02-21T11:26:31;3.83;;;3.03;;
19754;SDS011;10036;47.812;9.274;2024-02-21T11:28:59;4.40;;;2.28;;
19754;SDS011;10036;47.812;9.274;2024-02-21T11:31:37;3.85;;;2.47;;
19754;SDS011;10036;47.812;9.274;2024-02-21T11:34:05;2.47;;;2.28;;
19754;SDS011;10036;47.812;9.274;2024-02-21T11:36:34;2.63;;;2.20;;
19754;SDS011;10036;47.812;9.274;2024-02-21T11:39:04;5.43;;;2.72;;
19754;SDS011;10036;47.812;9.274;2024-02-21T11:41:31;3.88;;;2.30;;
19754;SDS011;10036;47.812;9.274;2024-02-21T11:43:58;3.70;;;2.38;;
19754;SDS011;10036;47.812;9.274;2024-02-21T11:46:26;3.45;;;2.60;;
19754;SDS011;10036;47.812;9.274;2024-02-21T11:48:53;9.52;;;2.65;;
19754;SDS011;10036;47.812;9.274;2024-02-21T11:51:21;5.07;;;1.88;;
19754;SDS011;10036;47.812;9.274;2024-02-21T11:53:51;3.67;;;2.53;;
19754;SDS011;10036;47.812;9.274;2024-02-21T11:56:20;4.00;;;2.22;;
19754;SDS011;10036;47.812;9.274;2024-02-21T11:58:48;3.70;;;2.40;;
19754;SDS011;10036;47.812;9.274;2024-02-21T12:01:15;2.60;;;2.40;;
19754;SDS011;10036;47.812;9.274;2024-02-21T12:03:42;3.58;;;2.50;;
19754;SDS011;10036;47.812;9.274;2024-02-21T12:06:15;2.25;;;1.88;;
19754;SDS011;10036;47.812;9.274;2024-02-21T12:08:44;2.85;;;2.40;;
19754;SDS011;10036;47.812;9.274;2024-02-21T12:11:20;3.22;;;2.33;;
19754;SDS011;10036;47.812;9.274;2024-02-21T12:13:47;3.33;;;2.17;;
19754;SDS011;10036;47.812;9.274;2024-02-21T12:16:26;2.58;;;1.95;;
19754;SDS011;10036;47.812;9.274;2024-02-21T12:18:54;4.25;;;2.20;;
19754;SDS011;10036;47.812;9.274;2024-02-21T12:21:25;2.40;;;2.20;;
19754;SDS011;10036;47.812;9.274;2024-02-21T12:23:53;3.35;;;2.17;;
19754;SDS011;10036;47.812;9.274;2024-02-21T12:26:22;3.33;;;1.90;;
19754;SDS011;10036;47.812;9.274;2024-02-21T12:28:49;3.95;;;1.90;;
19754;SDS011;10036;47.812;9.274;2024-02-21T12:31:16;4.72;;;1.98;;
19754;SDS011;10036;47.812;9.274;2024-02-21T12:33:43;2.65;;;2.22;;
19754;SDS011;10036;47.812;9.274;2024-02-21T12:36:10;1.70;;;1.60;;
19754;SDS011;10036;47.812;9.274;2024-02-21T12:38:37;3.83;;;2.15;;
19754;SDS011;10036;47.812;9.274;2024-02-21T12:41:04;2.28;;;2.05;;
19754;SDS011;10036;47.812;9.274;2024-02-21T12:43:33;2.58;;;1.73;;
19754;SDS011;10036;47.812;9.274;2024-02-21T12:46:00;2.15;;;1.95;;
19754;SDS011;10036;47.812;9.274;2024-02-21T12:48:27;3.03;;;1.95;;
19754;SDS011;10036;47.812;9.274;2024-02-21T12:50:54;3.53;;;2.20;;
19754;SDS011;10036;47.812;9.274;2024-02-21T12:53:21;1.85;;;1.70;;
19754;SDS011;10036;47.812;9.274;2024-02-21T12:55:49;3.38;;;1.75;;
19754;SDS011;10036;47.812;9.274;2024-02-21T12:58:16;2.45;;;1.40;;
19754;SDS011;10036;47.812;9.274;2024-02-21T13:00:44;2.85;;;1.58;;
19754;SDS011;10036;47.812;9.274;2024-02-21T13:03:11;1.80;;;1.70;;
19754;SDS011;10036;47.812;9.274;2024-02-21T13:05:38;2.85;;;1.85;;
19754;SDS011;10036;47.812;9.274;2024-02-21T13:08:05;2.03;;;1.85;;
19754;SDS011;10036;47.812;9.274;2024-02-21T13:10:33;2.28;;;2.08;;
19754;SDS011;10036;47.812;9.274;2024-02-21T13:13:00;2.28;;;2.08;;
19754;SDS011;10036;47.812;9.274;2024-02-21T13:15:27;2.97;;;1.92;;
19754;SDS011;10036;47.812;9.274;2024-02-21T13:17:56;3.17;;;2.40;;
19754;SDS011;10036;47.812;9.274;2024-02-21T13:20:23;1.67;;;1.58;;
19754;SDS011;10036;47.812;9.274;2024-02-21T13:22:51;2.35;;;1.90;;
19754;SDS011;10036;47.812;9.274;2024-02-21T13:25:18;2.15;;;1.95;;
19754;SDS011;10036;47.812;9.274;2024-02-21T13:27:46;3.35;;;1.90;;
19754;SDS011;10036;47.812;9.274;2024-02-21T13:30:13;4.72;;;1.83;;
19754;SDS011;10036;47.812;9.274;2024-02-21T13:32:43;3.10;;;2.00;;
19754;SDS011;10036;47.812;9.274;2024-02-21T13:35:13;2.10;;;1.88;;
19754;SDS011;10036;47.812;9.274;2024-02-21T13:37:40;3.05;;;2.00;;
19754;SDS011;10036;47.812;9.274;2024-02-21T13:40:08;4.22;;;2.10;;
19754;SDS011;10036;47.812;9.274;2024-02-21T13:42:35;4.03;;;2.00;;
19754;SDS011;10036;47.812;9.274;2024-02-21T13:45:03;3.22;;;2.20;;
19754;SDS011;10036;47.812;9.274;2024-02-21T13:47:31;1.70;;;1.60;;
19754;SDS011;10036;47.812;9.274;2024-02-21T13:49:58;2.25;;;1.80;;
19754;SDS011;10036;47.812;9.274;2024-02-21T13:52:26;3.08;;;2.00;;
19754;SDS011;10036;47.812;9.274;2024-02-21T13:54:53;2.10;;;1.90;;
19754;SDS011;10036;47.812;9.274;2024-02-21T13:57:20;2.60;;;2.00;;
19754;SDS011;10036;47.812;9.274;2024-02-21T13:59:47;2.08;;;1.80;;
19754;SDS011;10036;47.812;9.274;2024-02-21T14:02:14;2.28;;;1.80;;
19754;SDS011;10036;47.812;9.274;2024-02-21T14:04:40;2.22;;;1.85;;
19754;SDS011;10036;47.812;9.274;2024-02-21T14:07:07;2.65;;;2.15;;
19754;SDS011;10036;47.812;9.274;2024-02-21T14:09:36;5.05;;;2.03;;
19754;SDS011;10036;47.812;9.274;2024-02-21T14:12:03;2.72;;;2.17;;
19754;SDS011;10036;47.812;9.274;2024-02-21T14:14:33;3.42;;;1.92;;
19754;SDS011;10036;47.812;9.274;2024-02-21T14:17:00;4.57;;;2.55;;
19754;SDS011;10036;47.812;9.274;2024-02-21T14:19:27;2.72;;;2.25;;
19754;SDS011;10036;47.812;9.274;2024-02-21T14:21:55;4.00;;;2.70;;
19754;SDS011;10036;47.812;9.274;2024-02-21T14:24:22;2.70;;;2.20;;
19754;SDS011;10036;47.812;9.274;2024-02-21T14:26:50;4.05;;;2.33;;
19754;SDS011;10036;47.812;9.274;2024-02-21T14:29:17;2.15;;;1.95;;
19754;SDS011;10036;47.812;9.274;2024-02-21T14:31:44;2.85;;;2.08;;
19754;SDS011;10036;47.812;9.274;2024-02-21T14:34:11;4.47;;;2.03;;
19754;SDS011;10036;47.812;9.274;2024-02-21T14:36:38;3.63;;;2.00;;
19754;SDS011;10036;47.812;9.274;2024-02-21T14:39:05;2.70;;;2.30;;
19754;SDS011;10036;47.812;9.274;2024-02-21T14:41:32;2.97;;;1.98;;
19754;SDS011;10036;47.812;9.274;2024-02-21T14:44:01;4.32;;;2.05;;
19754;SDS011;10036;47.812;9.274;2024-02-21T14:46:28;4.05;;;2.35;;